createdAt,value
2018-10-17T00:00:10.748Z,0.00
2018-10-17T00:01:10.871Z,0.00
2018-10-17T00:03:03.542Z,0.00
2018-10-17T00:04:03.487Z,0.00
2018-10-17T00:05:56.313Z,0.00
2018-10-17T00:06:56.317Z,0.00
2018-10-17T00:08:49.083Z,0.00
2018-10-17T00:09:49.028Z,0.00
2018-10-17T00:11:41.864Z,0.00
2018-10-17T00:12:41.796Z,0.00
2018-10-17T00:14:34.620Z,0.00
2018-10-17T00:15:34.578Z,0.00
2018-10-17T00:17:27.425Z,0.00
2018-10-17T00:18:27.357Z,0.00
2018-10-17T00:20:20.169Z,0.00
2018-10-17T00:21:20.130Z,0.00
2018-10-17T00:23:13.061Z,0.00
2018-10-17T00:24:12.915Z,0.00
2018-10-17T00:26:06.233Z,0.00
2018-10-17T00:27:06.181Z,0.00
2018-10-17T00:28:59.035Z,0.00
2018-10-17T00:29:58.968Z,0.00
2018-10-17T00:31:51.780Z,0.00
2018-10-17T00:32:51.741Z,0.00
2018-10-17T00:34:44.554Z,0.00
2018-10-17T00:35:44.501Z,0.00
2018-10-17T00:37:37.346Z,0.00
2018-10-17T00:38:37.275Z,0.00
2018-10-17T00:40:30.108Z,0.00
2018-10-17T00:41:30.056Z,0.00
2018-10-17T00:43:22.886Z,0.00
2018-10-17T00:44:22.827Z,0.00
2018-10-17T00:46:15.634Z,0.00
2018-10-17T00:47:15.671Z,0.00
2018-10-17T00:49:08.980Z,0.00
2018-10-17T00:50:08.863Z,0.00
2018-10-17T00:52:01.679Z,0.00
2018-10-17T00:53:01.692Z,0.00
2018-10-17T00:54:54.473Z,0.00
2018-10-17T00:55:54.427Z,0.00
2018-10-17T00:57:47.256Z,0.00
2018-10-17T00:58:47.197Z,0.00
2018-10-17T01:00:40.006Z,0.00
2018-10-17T01:01:39.961Z,0.00
2018-10-17T01:03:32.806Z,0.00
2018-10-17T01:04:32.740Z,0.00
2018-10-17T01:06:25.556Z,0.00
2018-10-17T01:07:25.522Z,0.00
2018-10-17T01:09:18.343Z,0.00
2018-10-17T01:10:18.292Z,0.00
2018-10-17T01:12:11.115Z,0.00
2018-10-17T01:13:11.166Z,0.00
2018-10-17T01:15:03.892Z,0.00
2018-10-17T01:16:03.856Z,0.00
2018-10-17T01:17:56.656Z,0.00
2018-10-17T01:18:56.637Z,0.00
2018-10-17T01:20:49.433Z,0.00
2018-10-17T01:21:49.383Z,0.00
2018-10-17T01:23:42.197Z,0.00
2018-10-17T01:24:42.151Z,0.00
2018-10-17T01:26:34.981Z,0.00
2018-10-17T01:27:34.936Z,0.00
2018-10-17T01:31:00.489Z,0.00
2018-10-17T01:32:00.402Z,0.00
2018-10-17T01:33:53.227Z,0.00
2018-10-17T01:34:53.181Z,0.00
2018-10-17T01:36:45.992Z,0.00
2018-10-17T01:37:45.937Z,0.00
2018-10-17T01:39:38.761Z,0.00
2018-10-17T01:40:38.712Z,0.00
2018-10-17T01:42:31.517Z,0.00
2018-10-17T01:43:31.482Z,0.00
2018-10-17T01:45:24.307Z,0.00
2018-10-17T01:46:24.253Z,0.00
2018-10-17T01:48:17.074Z,0.00
2018-10-17T01:49:17.037Z,0.00
2018-10-17T01:51:09.854Z,0.00
2018-10-17T01:52:09.820Z,0.00
2018-10-17T01:54:02.607Z,0.00
2018-10-17T01:55:02.586Z,0.00
2018-10-17T01:56:55.908Z,0.00
2018-10-17T01:57:55.837Z,0.00
2018-10-17T01:59:48.657Z,0.00
2018-10-17T02:00:48.628Z,0.00
2018-10-17T02:02:42.429Z,0.00
2018-10-17T02:03:42.377Z,0.00
2018-10-17T02:05:35.213Z,0.00
2018-10-17T02:06:35.162Z,0.00
2018-10-17T02:08:27.966Z,0.00
2018-10-17T02:09:27.934Z,0.00
2018-10-17T02:11:20.785Z,0.00
2018-10-17T02:12:20.700Z,0.00
2018-10-17T02:14:13.534Z,0.00
2018-10-17T02:15:13.490Z,0.00
2018-10-17T02:17:06.870Z,0.00
2018-10-17T02:18:06.763Z,0.00
2018-10-17T02:19:59.569Z,0.00
2018-10-17T02:20:59.544Z,0.00
2018-10-17T02:22:52.365Z,0.00
2018-10-17T02:23:52.308Z,0.00
2018-10-17T02:25:45.119Z,0.00
2018-10-17T02:26:45.085Z,0.00
2018-10-17T02:28:37.899Z,0.00
2018-10-17T02:29:37.863Z,0.00
2018-10-17T02:31:31.165Z,0.00
2018-10-17T02:32:31.135Z,0.00
2018-10-17T02:34:23.965Z,0.00
2018-10-17T02:35:23.901Z,0.00
2018-10-17T02:37:16.775Z,0.00
2018-10-17T02:38:16.675Z,0.00
2018-10-17T02:40:09.479Z,0.00
2018-10-17T02:41:09.507Z,0.00
2018-10-17T02:43:02.320Z,0.00
2018-10-17T02:44:02.283Z,0.00
2018-10-17T02:45:55.036Z,0.00
2018-10-17T02:46:55.007Z,0.00
2018-10-17T02:48:47.825Z,0.00
2018-10-17T02:49:47.760Z,0.00
2018-10-17T02:51:40.566Z,0.00
2018-10-17T02:52:40.545Z,0.00
2018-10-17T02:54:33.354Z,0.00
2018-10-17T02:55:33.309Z,0.00
2018-10-17T02:57:26.121Z,0.00
2018-10-17T02:58:26.087Z,0.00
2018-10-17T03:00:18.921Z,0.00
2018-10-17T03:01:18.934Z,0.00
2018-10-17T03:03:11.682Z,0.00
2018-10-17T03:04:11.646Z,0.00
2018-10-17T03:06:04.453Z,0.00
2018-10-17T03:07:04.441Z,0.00
2018-10-17T03:08:57.242Z,0.00
2018-10-17T03:09:57.191Z,0.00
2018-10-17T03:11:49.993Z,0.00
2018-10-17T03:12:49.966Z,0.00
2018-10-17T03:14:42.782Z,0.00
2018-10-17T03:15:42.731Z,0.00
2018-10-17T03:17:35.534Z,0.00
2018-10-17T03:18:35.508Z,0.00
2018-10-17T03:20:28.315Z,0.00
2018-10-17T03:21:28.273Z,0.00
2018-10-17T03:23:21.169Z,0.00
2018-10-17T03:24:21.036Z,0.00
2018-10-17T03:26:13.858Z,0.00
2018-10-17T03:27:13.818Z,0.00
2018-10-17T03:29:06.735Z,0.00
2018-10-17T03:30:06.593Z,0.00
2018-10-17T03:31:59.403Z,0.00
2018-10-17T03:32:59.361Z,0.00
2018-10-17T03:34:52.169Z,0.00
2018-10-17T03:35:52.190Z,0.00
2018-10-17T03:37:44.942Z,0.00
2018-10-17T03:38:44.907Z,0.00
2018-10-17T03:40:37.718Z,0.00
2018-10-17T03:41:37.686Z,0.00
2018-10-17T03:43:30.481Z,0.00
2018-10-17T03:44:30.447Z,0.00
2018-10-17T03:46:23.267Z,0.00
2018-10-17T03:47:23.217Z,0.00
2018-10-17T03:49:16.164Z,0.00
2018-10-17T03:50:15.989Z,0.00
2018-10-17T03:52:08.809Z,0.00
2018-10-17T03:53:08.856Z,0.00
2018-10-17T03:55:02.129Z,0.00
2018-10-17T03:56:02.028Z,0.00
2018-10-17T03:57:54.829Z,0.00
2018-10-17T03:58:54.834Z,0.00
2018-10-17T04:00:47.603Z,0.00
2018-10-17T04:01:47.563Z,0.00
2018-10-17T04:03:40.369Z,0.00
2018-10-17T04:04:40.338Z,0.00
2018-10-17T04:06:33.168Z,0.00
2018-10-17T04:07:33.107Z,0.00
2018-10-17T04:09:25.919Z,0.00
2018-10-17T04:10:25.898Z,0.00
2018-10-17T04:12:19.207Z,0.00
2018-10-17T04:13:19.368Z,0.00
2018-10-17T04:15:12.473Z,0.00
2018-10-17T04:16:12.423Z,0.00
2018-10-17T04:18:05.242Z,0.00
2018-10-17T04:19:05.249Z,0.00
2018-10-17T04:20:58.009Z,0.00
2018-10-17T04:21:57.962Z,0.00
2018-10-17T04:23:50.760Z,0.00
2018-10-17T04:24:50.837Z,0.00
2018-10-17T04:26:43.560Z,0.00
2018-10-17T04:27:43.492Z,0.00
2018-10-17T04:29:36.304Z,0.00
2018-10-17T04:30:36.269Z,0.00
2018-10-17T04:32:29.107Z,0.00
2018-10-17T04:33:29.040Z,0.00
2018-10-17T04:35:21.856Z,0.00
2018-10-17T04:36:21.882Z,0.00
2018-10-17T04:38:14.629Z,0.00
2018-10-17T04:39:14.579Z,0.00
2018-10-17T04:41:07.406Z,0.00
2018-10-17T04:42:07.359Z,0.00
2018-10-17T04:44:00.185Z,0.00
2018-10-17T04:45:00.130Z,0.00
2018-10-17T04:46:52.999Z,0.00
2018-10-17T04:47:52.901Z,0.00
2018-10-17T04:49:45.707Z,0.00
2018-10-17T04:50:45.673Z,0.00
2018-10-17T04:52:38.495Z,0.00
2018-10-17T04:53:38.442Z,0.00
2018-10-17T04:55:31.252Z,0.00
2018-10-17T04:56:31.212Z,0.00
2018-10-17T04:58:24.044Z,0.00
2018-10-17T04:59:23.996Z,0.00
2018-10-17T05:01:16.928Z,0.00
2018-10-17T05:02:16.761Z,0.00
2018-10-17T05:04:09.575Z,0.00
2018-10-17T05:05:09.561Z,0.00
2018-10-17T05:07:02.330Z,0.00
2018-10-17T05:08:02.285Z,0.00
2018-10-17T05:09:55.096Z,0.00
2018-10-17T05:10:55.060Z,0.00
2018-10-17T05:12:47.881Z,0.00
2018-10-17T05:13:47.844Z,0.00
2018-10-17T05:15:40.633Z,0.00
2018-10-17T05:16:40.597Z,0.00
2018-10-17T05:18:33.421Z,0.00
2018-10-17T05:19:33.366Z,0.00
2018-10-17T05:21:26.168Z,0.00
2018-10-17T05:22:26.137Z,0.00
2018-10-17T05:24:18.961Z,0.00
2018-10-17T05:25:18.911Z,0.00
2018-10-17T05:27:13.197Z,0.00
2018-10-17T05:28:13.173Z,0.00
2018-10-17T05:30:05.986Z,0.00
2018-10-17T05:31:05.981Z,0.00
2018-10-17T05:32:58.742Z,4.00
2018-10-17T05:33:58.703Z,0.00
2018-10-17T05:35:51.533Z,4.00
2018-10-17T05:36:51.469Z,0.00
2018-10-17T05:38:44.291Z,4.00
2018-10-17T05:39:44.243Z,4.00
2018-10-17T05:41:37.042Z,8.00
2018-10-17T05:42:37.022Z,8.00
2018-10-17T05:44:29.858Z,12.00
2018-10-17T05:45:29.778Z,12.00
2018-10-17T05:47:22.599Z,16.00
2018-10-17T05:48:22.559Z,20.00
2018-10-17T05:50:15.371Z,28.00
2018-10-17T05:51:15.327Z,36.00
2018-10-17T05:53:08.193Z,48.00
2018-10-17T05:54:08.109Z,52.00
2018-10-17T05:56:00.921Z,68.00
2018-10-17T05:57:00.873Z,76.00
2018-10-17T05:58:53.748Z,88.00
2018-10-17T05:59:53.637Z,96.00
2018-10-17T06:01:46.641Z,108.00
2018-10-17T06:02:46.403Z,112.00
2018-10-17T06:04:39.224Z,120.00
2018-10-17T06:05:39.180Z,124.00
2018-10-17T06:07:31.984Z,140.00
2018-10-17T06:08:31.940Z,148.00
2018-10-17T06:10:24.868Z,172.00
2018-10-17T06:11:24.703Z,184.00
2018-10-17T06:13:17.606Z,204.00
2018-10-17T06:14:17.478Z,216.00
2018-10-17T06:16:10.316Z,236.00
2018-10-17T06:17:10.261Z,248.00
2018-10-17T06:19:03.076Z,260.00
2018-10-17T06:20:03.029Z,264.00
2018-10-17T06:21:55.861Z,288.00
2018-10-17T06:22:55.853Z,304.00
2018-10-17T06:24:48.619Z,332.00
2018-10-17T06:25:48.565Z,348.00
2018-10-17T06:27:41.385Z,372.00
2018-10-17T06:28:41.335Z,384.00
2018-10-17T06:30:34.150Z,420.00
2018-10-17T06:31:34.098Z,444.00
2018-10-17T06:33:26.920Z,468.00
2018-10-17T06:34:26.879Z,480.00
2018-10-17T06:36:19.686Z,512.00
2018-10-17T06:37:19.654Z,528.00
2018-10-17T06:39:12.486Z,552.00
2018-10-17T06:40:12.424Z,568.00
2018-10-17T06:42:05.234Z,608.00
2018-10-17T06:43:05.243Z,632.00
2018-10-17T06:44:58.020Z,668.00
2018-10-17T06:45:57.965Z,692.00
2018-10-17T06:47:50.781Z,744.00
2018-10-17T06:48:50.752Z,772.00
2018-10-17T06:50:43.540Z,824.00
2018-10-17T06:51:43.506Z,848.00
2018-10-17T06:53:36.324Z,884.00
2018-10-17T06:54:36.275Z,900.00
2018-10-17T06:56:29.080Z,932.00
2018-10-17T06:57:29.053Z,944.00
2018-10-17T06:59:21.876Z,972.00
2018-10-17T07:00:21.821Z,992.00
2018-10-17T07:02:14.703Z,1020.00
2018-10-17T07:03:14.604Z,1024.00
2018-10-17T07:05:07.432Z,1044.00
2018-10-17T07:06:07.367Z,1064.00
2018-10-17T07:08:00.226Z,1100.00
2018-10-17T07:09:00.147Z,1116.00
2018-10-17T07:10:52.988Z,1172.00
2018-10-17T07:11:52.901Z,1196.00
2018-10-17T07:13:45.727Z,1240.00
2018-10-17T07:14:45.676Z,1260.00
2018-10-17T07:16:38.497Z,1308.00
2018-10-17T07:17:38.462Z,1348.00
2018-10-17T07:19:31.267Z,1440.00
2018-10-17T07:20:31.226Z,1460.00
2018-10-17T07:22:24.032Z,1388.00
2018-10-17T07:23:23.987Z,1368.00
2018-10-17T07:25:16.930Z,1424.00
2018-10-17T07:26:16.752Z,1444.00
2018-10-17T07:28:09.576Z,1456.00
2018-10-17T07:29:09.562Z,1476.00
2018-10-17T07:31:02.437Z,1460.00
2018-10-17T07:32:02.306Z,1432.00
2018-10-17T07:33:55.136Z,1396.00
2018-10-17T07:34:55.073Z,1384.00
2018-10-17T07:36:47.923Z,1412.00
2018-10-17T07:37:47.842Z,1444.00
2018-10-17T07:39:40.665Z,1540.00
2018-10-17T07:40:40.606Z,1588.00
2018-10-17T07:42:33.428Z,1604.00
2018-10-17T07:43:33.393Z,1608.00
2018-10-17T07:45:26.286Z,1644.00
2018-10-17T07:46:26.168Z,1672.00
2018-10-17T07:48:18.978Z,1748.00
2018-10-17T07:49:18.938Z,1796.00
2018-10-17T07:51:11.759Z,1872.00
2018-10-17T07:52:11.707Z,1924.00
2018-10-17T07:54:04.528Z,2012.00
2018-10-17T07:55:04.469Z,2032.00
2018-10-17T07:56:57.293Z,2088.00
2018-10-17T07:57:57.246Z,2092.00
2018-10-17T07:59:50.147Z,2168.00
2018-10-17T08:00:50.018Z,2208.00
2018-10-17T08:02:42.831Z,2284.00
2018-10-17T08:03:42.794Z,2356.00
2018-10-17T08:05:35.614Z,2548.00
2018-10-17T08:06:35.597Z,2656.00
2018-10-17T08:08:28.373Z,2668.00
2018-10-17T08:09:28.348Z,2696.00
2018-10-17T08:11:21.173Z,2868.00
2018-10-17T08:12:21.193Z,2788.00
2018-10-17T08:14:14.022Z,2836.00
2018-10-17T08:15:13.873Z,2796.00
2018-10-17T08:17:06.705Z,2992.00
2018-10-17T08:18:06.666Z,3080.00
2018-10-17T08:19:59.460Z,3248.00
2018-10-17T08:20:59.420Z,3336.00
2018-10-17T08:22:52.235Z,3368.00
2018-10-17T08:23:52.231Z,3456.00
2018-10-17T08:25:44.996Z,3656.00
2018-10-17T08:26:45.024Z,3736.00
2018-10-17T08:28:37.785Z,3904.00
2018-10-17T08:29:37.725Z,3960.00
2018-10-17T08:31:30.566Z,4048.00
2018-10-17T08:32:30.505Z,4068.00
2018-10-17T08:34:23.318Z,3816.00
2018-10-17T08:35:23.367Z,4000.00
2018-10-17T08:37:16.583Z,4112.00
2018-10-17T08:38:16.053Z,4016.00
2018-10-17T08:40:08.854Z,3692.00
2018-10-17T08:41:08.918Z,3604.00
2018-10-17T08:43:01.649Z,3596.00
2018-10-17T08:44:01.632Z,3652.00
2018-10-17T08:45:54.411Z,3820.00
2018-10-17T08:46:54.410Z,3964.00
2018-10-17T08:48:47.195Z,4296.00
2018-10-17T08:49:47.145Z,4404.00
2018-10-17T08:51:39.949Z,4516.00
2018-10-17T08:52:39.915Z,4612.00
2018-10-17T08:54:32.749Z,4856.00
2018-10-17T08:55:32.701Z,4848.00
2018-10-17T08:57:25.512Z,4676.00
2018-10-17T08:58:25.468Z,4580.00
2018-10-17T09:00:18.301Z,4528.00
2018-10-17T09:01:18.246Z,4528.00
2018-10-17T09:03:11.077Z,4560.00
2018-10-17T09:04:11.024Z,4516.00
2018-10-17T09:06:03.933Z,4576.00
2018-10-17T09:07:03.801Z,4572.00
2018-10-17T09:08:56.616Z,4524.00
2018-10-17T09:09:56.571Z,4604.00
2018-10-17T09:11:49.404Z,4900.00
2018-10-17T09:12:49.345Z,5072.00
2018-10-17T09:14:42.182Z,5320.00
2018-10-17T09:15:42.121Z,5360.00
2018-10-17T09:17:34.932Z,5480.00
2018-10-17T09:18:34.900Z,5556.00
2018-10-17T09:20:27.830Z,5652.00
2018-10-17T09:21:28.126Z,5752.00
2018-10-17T09:23:20.477Z,6064.00
2018-10-17T09:24:20.439Z,6176.00
2018-10-17T09:26:13.274Z,6720.00
2018-10-17T09:27:13.228Z,7672.00
2018-10-17T09:29:06.145Z,24384.00
2018-10-17T09:30:06.025Z,59072.00
2018-10-17T09:31:58.841Z,79232.00
2018-10-17T09:32:58.787Z,76992.00
2018-10-17T09:34:51.613Z,54080.00
2018-10-17T09:35:51.614Z,63136.00
2018-10-17T09:37:44.418Z,63296.00
2018-10-17T09:38:44.358Z,71936.00
2018-10-17T09:40:37.193Z,81024.00
2018-10-17T09:41:37.197Z,83264.00
2018-10-17T09:43:30.004Z,82368.00
2018-10-17T09:44:29.944Z,80832.00
2018-10-17T09:46:23.290Z,67584.00
2018-10-17T09:47:23.243Z,64768.00
2018-10-17T09:49:16.064Z,63424.00
2018-10-17T09:50:16.032Z,63776.00
2018-10-17T09:52:09.389Z,87072.00
2018-10-17T09:53:09.366Z,88096.00
2018-10-17T09:55:02.160Z,90208.00
2018-10-17T09:56:02.133Z,87776.00
2018-10-17T09:57:54.990Z,85536.00
2018-10-17T09:58:54.953Z,78784.00
2018-10-17T10:00:48.259Z,76864.00
2018-10-17T10:01:48.240Z,81056.00
2018-10-17T10:03:41.573Z,92960.00
2018-10-17T10:04:41.528Z,92768.00
2018-10-17T10:06:34.853Z,94752.00
2018-10-17T10:07:34.822Z,95648.00
2018-10-17T10:09:27.660Z,93312.00
2018-10-17T10:10:27.643Z,93984.00
2018-10-17T10:12:20.973Z,92960.00
2018-10-17T10:13:20.930Z,93952.00
2018-10-17T10:15:14.276Z,96256.00
2018-10-17T10:16:14.295Z,95552.00
2018-10-17T10:18:07.596Z,95264.00
2018-10-17T10:19:07.559Z,93984.00
2018-10-17T10:21:00.883Z,95936.00
2018-10-17T10:22:00.877Z,95840.00
2018-10-17T10:23:54.255Z,95232.00
2018-10-17T10:24:54.225Z,96672.00
2018-10-17T10:26:47.488Z,94848.00
2018-10-17T10:27:47.468Z,96448.00
2018-10-17T10:29:40.864Z,90112.00
2018-10-17T10:30:40.780Z,90496.00
2018-10-17T10:32:34.121Z,85088.00
2018-10-17T10:33:34.102Z,89760.00
2018-10-17T10:35:27.446Z,94624.00
2018-10-17T10:36:27.411Z,92736.00
2018-10-17T10:38:20.779Z,92640.00
2018-10-17T10:39:20.740Z,94880.00
2018-10-17T10:41:14.074Z,92288.00
2018-10-17T10:42:14.190Z,93024.00
2018-10-17T10:44:07.476Z,91840.00
2018-10-17T10:45:07.455Z,92640.00
2018-10-17T10:47:00.724Z,91936.00
2018-10-17T10:48:00.782Z,91584.00
2018-10-17T10:49:54.102Z,89856.00
2018-10-17T10:50:54.071Z,86752.00
2018-10-17T10:52:47.407Z,86432.00
2018-10-17T10:53:47.353Z,84768.00
2018-10-17T10:55:40.692Z,84192.00
2018-10-17T10:56:40.642Z,84704.00
2018-10-17T10:58:34.083Z,81792.00
2018-10-17T10:59:34.168Z,84672.00
2018-10-17T11:01:27.331Z,85792.00
2018-10-17T11:02:27.298Z,87392.00
2018-10-17T11:04:20.624Z,78336.00
2018-10-17T11:05:20.771Z,79776.00
2018-10-17T11:07:14.024Z,86432.00
2018-10-17T11:08:14.106Z,86496.00
2018-10-17T11:10:07.335Z,85472.00
2018-10-17T11:11:07.338Z,84160.00
2018-10-17T11:13:00.627Z,80416.00
2018-10-17T11:14:00.669Z,81856.00
2018-10-17T11:15:53.960Z,82656.00
2018-10-17T11:16:53.965Z,83744.00
2018-10-17T11:18:47.250Z,81728.00
2018-10-17T11:19:47.237Z,81088.00
2018-10-17T11:21:40.618Z,83008.00
2018-10-17T11:22:40.561Z,84128.00
2018-10-17T11:24:33.898Z,80064.00
2018-10-17T11:25:33.881Z,75456.00
2018-10-17T11:27:27.242Z,78496.00
2018-10-17T11:28:27.211Z,77376.00
2018-10-17T11:30:20.552Z,76288.00
2018-10-17T11:31:20.527Z,75040.00
2018-10-17T11:33:14.012Z,75392.00
2018-10-17T11:34:13.831Z,74240.00
2018-10-17T11:36:07.177Z,74816.00
2018-10-17T11:37:07.160Z,73824.00
2018-10-17T11:39:00.525Z,75456.00
2018-10-17T11:40:00.497Z,72864.00
2018-10-17T11:41:53.811Z,46304.00
2018-10-17T11:42:53.776Z,29024.00
2018-10-17T11:44:47.114Z,45600.00
2018-10-17T11:45:47.104Z,42240.00
2018-10-17T11:47:40.494Z,14608.00
2018-10-17T11:48:40.398Z,11340.00
2018-10-17T11:50:33.791Z,9712.00
2018-10-17T11:51:33.716Z,9636.00
2018-10-17T11:53:27.058Z,9512.00
2018-10-17T11:54:27.027Z,9308.00
2018-10-17T11:56:20.350Z,9156.00
2018-10-17T11:57:20.421Z,9036.00
2018-10-17T11:59:13.761Z,9572.00
2018-10-17T12:00:13.637Z,8396.00
2018-10-17T12:02:06.962Z,7280.00
2018-10-17T12:03:07.003Z,6692.00
2018-10-17T12:04:59.978Z,6332.00
2018-10-17T12:05:59.817Z,6680.00
2018-10-17T12:07:52.599Z,6600.00
2018-10-17T12:08:52.558Z,7164.00
2018-10-17T12:10:45.384Z,6424.00
2018-10-17T12:11:45.381Z,5444.00
2018-10-17T12:13:38.707Z,5812.00
2018-10-17T12:14:38.663Z,5348.00
2018-10-17T12:16:31.489Z,6564.00
2018-10-17T12:17:31.465Z,6776.00
2018-10-17T12:19:24.798Z,6936.00
2018-10-17T12:20:24.780Z,6912.00
2018-10-17T12:22:17.583Z,6860.00
2018-10-17T12:23:17.552Z,6832.00
2018-10-17T12:25:10.389Z,6712.00
2018-10-17T12:26:10.350Z,6672.00
2018-10-17T12:28:03.324Z,6788.00
2018-10-17T12:29:03.134Z,6788.00
2018-10-17T12:30:55.991Z,6692.00
2018-10-17T12:31:55.938Z,6628.00
2018-10-17T12:33:49.259Z,6576.00
2018-10-17T12:34:49.236Z,6552.00
2018-10-17T12:36:42.568Z,6672.00
2018-10-17T12:37:42.535Z,6516.00
2018-10-17T12:39:35.400Z,6392.00
2018-10-17T12:40:35.536Z,6392.00
2018-10-17T12:42:28.674Z,6232.00
2018-10-17T12:43:28.626Z,6204.00
2018-10-17T12:45:22.038Z,5988.00
2018-10-17T12:46:21.916Z,5968.00
2018-10-17T12:48:14.730Z,6300.00
2018-10-17T12:49:14.859Z,6152.00
2018-10-17T12:51:07.548Z,6776.00
2018-10-17T12:52:07.561Z,7024.00
2018-10-17T12:54:00.844Z,6680.00
2018-10-17T12:55:00.850Z,6164.00
2018-10-17T12:56:53.621Z,7180.00
2018-10-17T12:57:53.590Z,7220.00
2018-10-17T12:59:46.399Z,7248.00
2018-10-17T13:00:46.375Z,7980.00
2018-10-17T13:02:39.206Z,9688.00
2018-10-17T13:03:39.158Z,9144.00
2018-10-17T13:05:31.996Z,7396.00
2018-10-17T13:06:31.980Z,7784.00
2018-10-17T13:08:24.807Z,7532.00
2018-10-17T13:09:24.789Z,7468.00
2018-10-17T13:11:17.777Z,6764.00
2018-10-17T13:12:17.566Z,6576.00
2018-10-17T13:14:10.389Z,6620.00
2018-10-17T13:15:10.437Z,6088.00
2018-10-17T13:17:03.696Z,5756.00
2018-10-17T13:18:03.647Z,5620.00
2018-10-17T13:19:56.464Z,5192.00
2018-10-17T13:20:56.451Z,5048.00
2018-10-17T13:22:49.266Z,4652.00
2018-10-17T13:23:49.228Z,4624.00
2018-10-17T13:25:42.545Z,4804.00
2018-10-17T13:26:42.518Z,4740.00
2018-10-17T13:28:35.338Z,4652.00
2018-10-17T13:29:35.303Z,4616.00
2018-10-17T13:31:28.625Z,4532.00
2018-10-17T13:32:28.601Z,4476.00
2018-10-17T13:34:21.926Z,4360.00
2018-10-17T13:35:21.881Z,4256.00
2018-10-17T13:37:15.326Z,4044.00
2018-10-17T13:38:15.171Z,3952.00
2018-10-17T13:40:08.520Z,3792.00
2018-10-17T13:41:08.516Z,3708.00
2018-10-17T13:43:01.312Z,3516.00
2018-10-17T13:44:01.248Z,3412.00
2018-10-17T13:45:54.600Z,3280.00
2018-10-17T13:46:54.635Z,3212.00
2018-10-17T13:48:47.404Z,3144.00
2018-10-17T13:49:47.462Z,3084.00
2018-10-17T13:51:40.204Z,3072.00
2018-10-17T13:52:40.163Z,3456.00
2018-10-17T13:54:33.062Z,3320.00
2018-10-17T13:55:32.939Z,3060.00
2018-10-17T13:57:25.773Z,3004.00
2018-10-17T13:58:25.824Z,2948.00
2018-10-17T14:00:19.072Z,3044.00
2018-10-17T14:01:19.033Z,2860.00
2018-10-17T14:03:12.336Z,2952.00
2018-10-17T14:04:12.384Z,2876.00
2018-10-17T14:06:05.691Z,3356.00
2018-10-17T14:07:05.685Z,3056.00
2018-10-17T14:08:58.963Z,3048.00
2018-10-17T14:09:58.894Z,3320.00
2018-10-17T14:11:51.736Z,4136.00
2018-10-17T14:12:51.683Z,3848.00
2018-10-17T14:14:45.007Z,4940.00
2018-10-17T14:15:44.980Z,4764.00
2018-10-17T14:17:37.788Z,4152.00
2018-10-17T14:18:37.754Z,4092.00
2018-10-17T14:20:31.122Z,4764.00
2018-10-17T14:21:31.045Z,4740.00
2018-10-17T14:23:24.403Z,4208.00
2018-10-17T14:24:24.336Z,3692.00
2018-10-17T14:26:17.183Z,3332.00
2018-10-17T14:27:17.249Z,3052.00
2018-10-17T14:29:10.458Z,3084.00
2018-10-17T14:30:10.437Z,3236.00
2018-10-17T14:32:03.259Z,2564.00
2018-10-17T14:33:03.224Z,2444.00
2018-10-17T14:34:56.528Z,2460.00
2018-10-17T14:35:56.507Z,2460.00
2018-10-17T14:37:49.473Z,2556.00
2018-10-17T14:38:49.322Z,2460.00
2018-10-17T14:40:42.187Z,2436.00
2018-10-17T14:41:42.104Z,2388.00
2018-10-17T14:43:34.928Z,2324.00
2018-10-17T14:44:34.894Z,2312.00
2018-10-17T14:46:28.222Z,2292.00
2018-10-17T14:47:28.159Z,2276.00
2018-10-17T14:49:20.998Z,2236.00
2018-10-17T14:50:20.958Z,2212.00
2018-10-17T14:52:13.796Z,2184.00
2018-10-17T14:53:13.827Z,2164.00
2018-10-17T14:55:07.069Z,2128.00
2018-10-17T14:56:07.103Z,2104.00
2018-10-17T14:58:00.377Z,2080.00
2018-10-17T14:59:00.393Z,2076.00
2018-10-17T15:00:53.652Z,2044.00
2018-10-17T15:01:53.624Z,2024.00
2018-10-17T15:03:46.952Z,1980.00
2018-10-17T15:04:46.920Z,1956.00
2018-10-17T15:06:40.237Z,1884.00
2018-10-17T15:07:40.199Z,1860.00
2018-10-17T15:09:33.551Z,1792.00
2018-10-17T15:10:33.606Z,1756.00
2018-10-17T15:12:26.838Z,1700.00
2018-10-17T15:13:26.787Z,1688.00
2018-10-17T15:15:20.208Z,1660.00
2018-10-17T15:16:20.066Z,1636.00
2018-10-17T15:18:13.472Z,1588.00
2018-10-17T15:19:13.344Z,1576.00
2018-10-17T15:21:06.247Z,1556.00
2018-10-17T15:22:06.141Z,1540.00
2018-10-17T15:23:59.034Z,1516.00
2018-10-17T15:24:58.941Z,1492.00
2018-10-17T15:26:52.270Z,1448.00
2018-10-17T15:27:52.225Z,1424.00
2018-10-17T15:29:45.556Z,1388.00
2018-10-17T15:30:45.502Z,1364.00
2018-10-17T15:32:38.807Z,1348.00
2018-10-17T15:33:38.778Z,1340.00
2018-10-17T15:35:32.124Z,1296.00
2018-10-17T15:36:32.075Z,1268.00
2018-10-17T15:38:25.394Z,1224.00
2018-10-17T15:39:25.349Z,1196.00
2018-10-17T15:41:18.182Z,1140.00
2018-10-17T15:42:18.300Z,1108.00
2018-10-17T15:44:10.966Z,1040.00
2018-10-17T15:45:10.966Z,1020.00
2018-10-17T15:47:04.247Z,980.00
2018-10-17T15:48:04.244Z,960.00
2018-10-17T15:49:57.542Z,896.00
2018-10-17T15:50:57.502Z,844.00
2018-10-17T15:52:50.341Z,780.00
2018-10-17T15:53:50.283Z,752.00
2018-10-17T15:55:43.616Z,720.00
2018-10-17T15:56:43.559Z,692.00
2018-10-17T15:58:36.392Z,620.00
2018-10-17T15:59:36.348Z,588.00
2018-10-17T16:01:29.198Z,540.00
2018-10-17T16:02:29.172Z,520.00
2018-10-17T16:04:21.962Z,480.00
2018-10-17T16:05:21.920Z,460.00
2018-10-17T16:07:14.743Z,428.00
2018-10-17T16:08:14.770Z,412.00
2018-10-17T16:10:07.539Z,380.00
2018-10-17T16:11:07.489Z,368.00
2018-10-17T16:13:00.308Z,340.00
2018-10-17T16:14:00.351Z,328.00
2018-10-17T16:15:53.601Z,308.00
2018-10-17T16:16:53.566Z,292.00
2018-10-17T16:18:46.369Z,272.00
2018-10-17T16:19:46.335Z,256.00
2018-10-17T16:21:39.170Z,232.00
2018-10-17T16:22:39.129Z,216.00
2018-10-17T16:24:32.449Z,184.00
2018-10-17T16:25:32.438Z,172.00
2018-10-17T16:27:25.766Z,144.00
2018-10-17T16:28:25.729Z,132.00
2018-10-17T16:30:18.598Z,112.00
2018-10-17T16:31:18.507Z,100.00
2018-10-17T16:33:11.325Z,84.00
2018-10-17T16:34:11.290Z,76.00
2018-10-17T16:36:04.292Z,68.00
2018-10-17T16:37:04.109Z,60.00
2018-10-17T16:38:56.901Z,52.00
2018-10-17T16:39:56.865Z,52.00
2018-10-17T16:41:49.684Z,44.00
2018-10-17T16:42:49.625Z,44.00
2018-10-17T16:44:42.950Z,36.00
2018-10-17T16:45:42.921Z,32.00
2018-10-17T16:47:35.765Z,24.00
2018-10-17T16:48:35.697Z,20.00
2018-10-17T16:50:28.559Z,16.00
2018-10-17T16:51:28.483Z,16.00
2018-10-17T16:53:21.316Z,12.00
2018-10-17T16:54:21.279Z,8.00
2018-10-17T16:56:14.116Z,4.00
2018-10-17T16:57:14.166Z,4.00
2018-10-17T16:59:06.907Z,0.00
2018-10-17T17:00:06.887Z,4.00
2018-10-17T17:02:00.278Z,4.00
2018-10-17T17:03:00.189Z,4.00
2018-10-17T17:04:52.933Z,0.00
2018-10-17T17:05:52.967Z,0.00
2018-10-17T17:07:45.738Z,0.00
2018-10-17T17:08:45.692Z,0.00
2018-10-17T17:10:38.546Z,0.00
2018-10-17T17:11:38.477Z,0.00
2018-10-17T17:13:31.313Z,0.00
2018-10-17T17:14:31.282Z,0.00
2018-10-17T17:16:24.123Z,0.00
2018-10-17T17:17:24.042Z,0.00
2018-10-17T17:19:16.878Z,0.00
2018-10-17T17:20:16.832Z,0.00
2018-10-17T17:22:09.752Z,0.00
2018-10-17T17:23:09.651Z,0.00
2018-10-17T17:25:02.471Z,0.00
2018-10-17T17:26:02.434Z,0.00
2018-10-17T17:27:55.769Z,0.00
2018-10-17T17:28:55.717Z,0.00
2018-10-17T17:30:48.533Z,0.00
2018-10-17T17:31:48.511Z,0.00
2018-10-17T17:33:41.321Z,0.00
2018-10-17T17:34:41.272Z,0.00
2018-10-17T17:36:34.199Z,0.00
2018-10-17T17:37:34.053Z,0.00
2018-10-17T17:39:27.389Z,0.00
2018-10-17T17:40:27.347Z,0.00
2018-10-17T17:42:20.147Z,0.00
2018-10-17T17:43:20.114Z,0.00
2018-10-17T17:45:12.955Z,0.00
2018-10-17T17:46:12.947Z,0.00
2018-10-17T17:48:05.748Z,0.00
2018-10-17T17:49:05.717Z,0.00
2018-10-17T17:50:59.033Z,0.00
2018-10-17T17:51:59.023Z,0.00
2018-10-17T17:53:51.825Z,0.00
2018-10-17T17:54:51.778Z,0.00
2018-10-17T17:56:44.599Z,0.00
2018-10-17T17:57:44.606Z,0.00
2018-10-17T17:59:37.402Z,0.00
2018-10-17T18:00:37.344Z,0.00
2018-10-17T18:02:30.165Z,0.00
2018-10-17T18:03:30.129Z,0.00
2018-10-17T18:05:23.458Z,0.00